sensor_id;sensor_type;location;lat;lon;timestamp;temperature;humidity
18930;DHT22;43305;52.186;5.598;2022-12-07T00:00:27;3.20;99.90
18930;DHT22;43305;52.186;5.598;2022-12-07T00:02:53;3.20;99.90
18930;DHT22;43305;52.186;5.598;2022-12-07T00:05:20;3.10;99.90
18930;DHT22;43305;52.186;5.598;2022-12-07T00:07:49;3.10;99.90
18930;DHT22;43305;52.186;5.598;2022-12-07T00:10:26;3.00;99.90
18930;DHT22;43305;52.186;5.598;2022-12-07T00:12:58;3.00;99.90
18930;DHT22;43305;52.186;5.598;2022-12-07T00:15:27;3.00;99.90
18930;DHT22;43305;52.186;5.598;2022-12-07T00:17:56;2.90;99.90
18930;DHT22;43305;52.186;5.598;2022-12-07T00:20:25;2.90;99.90
18930;DHT22;43305;52.186;5.598;2022-12-07T00:22:55;2.90;99.90
18930;DHT22;43305;52.186;5.598;2022-12-07T00:25:22;2.90;99.90
18930;DHT22;43305;52.186;5.598;2022-12-07T00:27:53;2.90;99.90
18930;DHT22;43305;52.186;5.598;2022-12-07T00:30:22;3.00;99.90
18930;DHT22;43305;52.186;5.598;2022-12-07T00:33:00;3.00;99.90
18930;DHT22;43305;52.186;5.598;2022-12-07T00:35:29;3.00;99.90
18930;DHT22;43305;52.186;5.598;2022-12-07T00:38:02;3.00;99.90
18930;DHT22;43305;52.186;5.598;2022-12-07T00:40:29;3.00;99.90
18930;DHT22;43305;52.186;5.598;2022-12-07T00:42:55;3.10;99.90
18930;DHT22;43305;52.186;5.598;2022-12-07T00:45:22;3.10;99.90
18930;DHT22;43305;52.186;5.598;2022-12-07T00:47:49;3.10;99.90
18930;DHT22;43305;52.186;5.598;2022-12-07T00:50:18;3.00;99.90
18930;DHT22;43305;52.186;5.598;2022-12-07T00:52:45;3.10;99.90
18930;DHT22;43305;52.186;5.598;2022-12-07T00:55:13;3.10;99.90
18930;DHT22;43305;52.186;5.598;2022-12-07T00:57:40;3.00;99.90
18930;DHT22;43305;52.186;5.598;2022-12-07T01:00:11;3.00;99.90
18930;DHT22;43305;52.186;5.598;2022-12-07T01:02:41;3.00;99.90
18930;DHT22;43305;52.186;5.598;2022-12-07T01:05:15;3.00;99.90
18930;DHT22;43305;52.186;5.598;2022-12-07T01:07:45;3.10;99.90
18930;DHT22;43305;52.186;5.598;2022-12-07T01:10:27;3.00;99.90
18930;DHT22;43305;52.186;5.598;2022-12-07T01:12:56;3.10;99.90
18930;DHT22;43305;52.186;5.598;2022-12-07T01:15:25;3.10;99.90
18930;DHT22;43305;52.186;5.598;2022-12-07T01:17:53;3.10;99.90
18930;DHT22;43305;52.186;5.598;2022-12-07T01:20:20;3.10;99.90
18930;DHT22;43305;52.186;5.598;2022-12-07T01:23:07;3.10;99.90
18930;DHT22;43305;52.186;5.598;2022-12-07T01:25:36;3.00;99.90
18930;DHT22;43305;52.186;5.598;2022-12-07T01:28:03;3.00;99.90
18930;DHT22;43305;52.186;5.598;2022-12-07T01:30:35;3.00;99.90
18930;DHT22;43305;52.186;5.598;2022-12-07T01:33:07;3.00;99.90
18930;DHT22;43305;52.186;5.598;2022-12-07T01:35:34;3.00;99.90
18930;DHT22;43305;52.186;5.598;2022-12-07T01:38:04;3.00;99.90
18930;DHT22;43305;52.186;5.598;2022-12-07T01:40:34;3.00;99.90
18930;DHT22;43305;52.186;5.598;2022-12-07T01:43:09;2.90;99.90
18930;DHT22;43305;52.186;5.598;2022-12-07T01:45:46;2.90;99.90
18930;DHT22;43305;52.186;5.598;2022-12-07T01:48:20;2.90;99.90
18930;DHT22;43305;52.186;5.598;2022-12-07T01:50:53;2.80;99.90
18930;DHT22;43305;52.186;5.598;2022-12-07T01:53:25;2.80;99.90
18930;DHT22;43305;52.186;5.598;2022-12-07T01:55:56;2.80;99.90
18930;DHT22;43305;52.186;5.598;2022-12-07T01:58:28;2.70;99.90
18930;DHT22;43305;52.186;5.598;2022-12-07T02:00:55;2.70;99.90
18930;DHT22;43305;52.186;5.598;2022-12-07T02:03:29;2.70;99.90
18930;DHT22;43305;52.186;5.598;2022-12-07T02:05:59;2.70;99.90
18930;DHT22;43305;52.186;5.598;2022-12-07T02:08:28;2.70;99.90
18930;DHT22;43305;52.186;5.598;2022-12-07T02:10:56;2.70;99.90
18930;DHT22;43305;52.186;5.598;2022-12-07T02:13:24;2.70;99.90
18930;DHT22;43305;52.186;5.598;2022-12-07T02:16:08;2.70;99.90
18930;DHT22;43305;52.186;5.598;2022-12-07T02:18:51;2.70;99.90
18930;DHT22;43305;52.186;5.598;2022-12-07T02:21:35;2.70;99.90
18930;DHT22;43305;52.186;5.598;2022-12-07T02:24:15;2.70;99.90
18930;DHT22;43305;52.186;5.598;2022-12-07T02:30:00;2.80;99.90
18930;DHT22;43305;52.186;5.598;2022-12-07T02:32:39;2.80;99.90
18930;DHT22;43305;52.186;5.598;2022-12-07T02:35:11;2.80;99.90
18930;DHT22;43305;52.186;5.598;2022-12-07T02:37:46;2.80;99.90
18930;DHT22;43305;52.186;5.598;2022-12-07T02:40:27;2.80;99.90
18930;DHT22;43305;52.186;5.598;2022-12-07T02:43:00;2.90;99.90
18930;DHT22;43305;52.186;5.598;2022-12-07T02:45:36;2.90;99.90
18930;DHT22;43305;52.186;5.598;2022-12-07T02:48:06;2.90;99.90
18930;DHT22;43305;52.186;5.598;2022-12-07T02:50:34;2.90;99.90
18930;DHT22;43305;52.186;5.598;2022-12-07T02:53:01;2.90;99.90
18930;DHT22;43305;52.186;5.598;2022-12-07T02:55:30;3.00;99.90
18930;DHT22;43305;52.186;5.598;2022-12-07T02:58:15;3.00;99.90
18930;DHT22;43305;52.186;5.598;2022-12-07T03:00:54;2.90;99.90
18930;DHT22;43305;52.186;5.598;2022-12-07T03:03:23;3.00;99.90
18930;DHT22;43305;52.186;5.598;2022-12-07T03:06:05;3.00;99.90
18930;DHT22;43305;52.186;5.598;2022-12-07T03:08:45;3.00;99.90
18930;DHT22;43305;52.186;5.598;2022-12-07T03:11:17;3.00;99.90
18930;DHT22;43305;52.186;5.598;2022-12-07T03:13:50;3.00;99.90
18930;DHT22;43305;52.186;5.598;2022-12-07T03:16:24;3.00;99.90
18930;DHT22;43305;52.186;5.598;2022-12-07T03:19:05;3.00;99.90
18930;DHT22;43305;52.186;5.598;2022-12-07T03:21:38;3.00;99.90
18930;DHT22;43305;52.186;5.598;2022-12-07T03:24:14;3.00;99.90
18930;DHT22;43305;52.186;5.598;2022-12-07T03:26:46;3.00;99.90
18930;DHT22;43305;52.186;5.598;2022-12-07T03:29:22;3.00;99.90
18930;DHT22;43305;52.186;5.598;2022-12-07T03:32:03;3.00;99.90
18930;DHT22;43305;52.186;5.598;2022-12-07T03:34:38;3.00;99.90
18930;DHT22;43305;52.186;5.598;2022-12-07T03:37:12;3.00;99.90
18930;DHT22;43305;52.186;5.598;2022-12-07T03:39:49;3.10;99.90
18930;DHT22;43305;52.186;5.598;2022-12-07T03:42:21;3.10;99.90
18930;DHT22;43305;52.186;5.598;2022-12-07T03:44:48;3.20;99.90
18930;DHT22;43305;52.186;5.598;2022-12-07T03:47:24;3.20;99.90
18930;DHT22;43305;52.186;5.598;2022-12-07T03:49:56;3.20;99.90
18930;DHT22;43305;52.186;5.598;2022-12-07T03:52:28;3.20;99.90
18930;DHT22;43305;52.186;5.598;2022-12-07T03:55:02;3.30;99.90
18930;DHT22;43305;52.186;5.598;2022-12-07T03:57:33;3.20;99.90
18930;DHT22;43305;52.186;5.598;2022-12-07T04:00:05;3.20;99.90
18930;DHT22;43305;52.186;5.598;2022-12-07T04:02:34;3.20;99.90
18930;DHT22;43305;52.186;5.598;2022-12-07T04:05:02;3.30;99.90
18930;DHT22;43305;52.186;5.598;2022-12-07T04:07:29;3.20;99.90
18930;DHT22;43305;52.186;5.598;2022-12-07T04:09:56;3.20;99.90
18930;DHT22;43305;52.186;5.598;2022-12-07T04:12:23;3.20;99.90
18930;DHT22;43305;52.186;5.598;2022-12-07T04:14:52;3.20;99.90
18930;DHT22;43305;52.186;5.598;2022-12-07T04:17:19;3.20;99.90
18930;DHT22;43305;52.186;5.598;2022-12-07T04:19:47;3.20;99.90
18930;DHT22;43305;52.186;5.598;2022-12-07T04:22:15;3.20;99.90
18930;DHT22;43305;52.186;5.598;2022-12-07T04:24:47;3.20;99.90
18930;DHT22;43305;52.186;5.598;2022-12-07T04:27:13;3.20;99.90
18930;DHT22;43305;52.186;5.598;2022-12-07T04:29:40;3.20;99.90
18930;DHT22;43305;52.186;5.598;2022-12-07T04:32:07;3.10;99.90
18930;DHT22;43305;52.186;5.598;2022-12-07T04:34:34;3.10;99.90
18930;DHT22;43305;52.186;5.598;2022-12-07T04:37:02;3.10;99.90
18930;DHT22;43305;52.186;5.598;2022-12-07T04:39:30;3.10;99.90
18930;DHT22;43305;52.186;5.598;2022-12-07T04:42:03;3.00;99.90
18930;DHT22;43305;52.186;5.598;2022-12-07T04:44:30;3.00;99.90
18930;DHT22;43305;52.186;5.598;2022-12-07T04:46:57;3.00;99.90
18930;DHT22;43305;52.186;5.598;2022-12-07T04:49:27;3.00;99.90
18930;DHT22;43305;52.186;5.598;2022-12-07T04:51:53;2.90;99.90
18930;DHT22;43305;52.186;5.598;2022-12-07T04:54:22;2.90;99.90
18930;DHT22;43305;52.186;5.598;2022-12-07T04:56:49;2.80;99.90
18930;DHT22;43305;52.186;5.598;2022-12-07T04:59:16;2.80;99.90
18930;DHT22;43305;52.186;5.598;2022-12-07T05:01:45;2.80;99.90
18930;DHT22;43305;52.186;5.598;2022-12-07T05:04:12;2.90;99.90
18930;DHT22;43305;52.186;5.598;2022-12-07T05:06:39;3.00;99.90
18930;DHT22;43305;52.186;5.598;2022-12-07T05:09:06;2.90;99.90
18930;DHT22;43305;52.186;5.598;2022-12-07T05:11:37;3.00;99.90
18930;DHT22;43305;52.186;5.598;2022-12-07T05:14:09;3.00;99.90
18930;DHT22;43305;52.186;5.598;2022-12-07T05:16:38;2.90;99.90
18930;DHT22;43305;52.186;5.598;2022-12-07T05:19:09;2.90;99.90
18930;DHT22;43305;52.186;5.598;2022-12-07T05:21:36;2.90;99.90
18930;DHT22;43305;52.186;5.598;2022-12-07T05:24:06;2.90;99.90
18930;DHT22;43305;52.186;5.598;2022-12-07T05:26:33;2.90;99.90
18930;DHT22;43305;52.186;5.598;2022-12-07T05:29:01;2.80;99.90
18930;DHT22;43305;52.186;5.598;2022-12-07T05:31:31;2.80;99.90
18930;DHT22;43305;52.186;5.598;2022-12-07T05:34:01;2.70;99.90
18930;DHT22;43305;52.186;5.598;2022-12-07T05:36:28;2.70;99.90
18930;DHT22;43305;52.186;5.598;2022-12-07T05:38:58;2.70;99.90
18930;DHT22;43305;52.186;5.598;2022-12-07T05:41:25;2.70;99.90
18930;DHT22;43305;52.186;5.598;2022-12-07T05:44:07;2.70;99.90
18930;DHT22;43305;52.186;5.598;2022-12-07T05:46:34;2.60;99.90
18930;DHT22;43305;52.186;5.598;2022-12-07T05:49:01;2.60;99.90
18930;DHT22;43305;52.186;5.598;2022-12-07T05:51:28;2.60;99.90
18930;DHT22;43305;52.186;5.598;2022-12-07T05:54:00;2.60;99.90
18930;DHT22;43305;52.186;5.598;2022-12-07T05:56:29;2.60;99.90
18930;DHT22;43305;52.186;5.598;2022-12-07T05:58:55;2.60;99.90
18930;DHT22;43305;52.186;5.598;2022-12-07T06:01:38;2.60;99.90
18930;DHT22;43305;52.186;5.598;2022-12-07T06:04:06;2.60;99.90
18930;DHT22;43305;52.186;5.598;2022-12-07T06:06:35;2.70;99.90
18930;DHT22;43305;52.186;5.598;2022-12-07T06:09:02;2.70;99.90
18930;DHT22;43305;52.186;5.598;2022-12-07T06:11:35;2.70;99.90
18930;DHT22;43305;52.186;5.598;2022-12-07T06:14:15;2.70;99.90
18930;DHT22;43305;52.186;5.598;2022-12-07T06:16:43;2.70;99.90
18930;DHT22;43305;52.186;5.598;2022-12-07T06:19:12;2.70;99.90
18930;DHT22;43305;52.186;5.598;2022-12-07T06:21:39;2.80;99.90
18930;DHT22;43305;52.186;5.598;2022-12-07T06:24:07;2.80;99.90
18930;DHT22;43305;52.186;5.598;2022-12-07T06:26:33;2.80;99.90
18930;DHT22;43305;52.186;5.598;2022-12-07T06:29:00;2.90;99.90
18930;DHT22;43305;52.186;5.598;2022-12-07T06:31:27;2.90;99.90
18930;DHT22;43305;52.186;5.598;2022-12-07T06:33:58;2.80;99.90
18930;DHT22;43305;52.186;5.598;2022-12-07T06:36:25;2.80;99.90
18930;DHT22;43305;52.186;5.598;2022-12-07T06:38:52;2.80;99.90
18930;DHT22;43305;52.186;5.598;2022-12-07T06:41:19;2.80;99.90
18930;DHT22;43305;52.186;5.598;2022-12-07T06:43:45;2.80;99.90
18930;DHT22;43305;52.186;5.598;2022-12-07T06:46:13;2.80;99.90
18930;DHT22;43305;52.186;5.598;2022-12-07T06:48:41;2.80;99.90
18930;DHT22;43305;52.186;5.598;2022-12-07T06:51:11;2.70;99.90
18930;DHT22;43305;52.186;5.598;2022-12-07T06:53:38;2.80;99.90
18930;DHT22;43305;52.186;5.598;2022-12-07T06:56:05;2.70;99.90
18930;DHT22;43305;52.186;5.598;2022-12-07T06:58:32;2.70;99.90
18930;DHT22;43305;52.186;5.598;2022-12-07T07:00:59;2.70;99.90
18930;DHT22;43305;52.186;5.598;2022-12-07T07:03:33;2.60;99.90
18930;DHT22;43305;52.186;5.598;2022-12-07T07:06:00;2.60;99.90
18930;DHT22;43305;52.186;5.598;2022-12-07T07:08:30;2.60;99.90
18930;DHT22;43305;52.186;5.598;2022-12-07T07:10:57;2.60;99.90
18930;DHT22;43305;52.186;5.598;2022-12-07T07:13:25;2.60;99.90
18930;DHT22;43305;52.186;5.598;2022-12-07T07:15:52;2.60;99.90
18930;DHT22;43305;52.186;5.598;2022-12-07T07:18:19;2.60;99.90
18930;DHT22;43305;52.186;5.598;2022-12-07T07:20:46;2.50;99.90
18930;DHT22;43305;52.186;5.598;2022-12-07T07:23:13;2.50;99.90
18930;DHT22;43305;52.186;5.598;2022-12-07T07:25:43;2.50;99.90
18930;DHT22;43305;52.186;5.598;2022-12-07T07:28:14;2.50;99.90
18930;DHT22;43305;52.186;5.598;2022-12-07T07:30:41;2.50;99.90
18930;DHT22;43305;52.186;5.598;2022-12-07T07:33:12;2.50;99.90
18930;DHT22;43305;52.186;5.598;2022-12-07T07:35:40;2.50;99.90
18930;DHT22;43305;52.186;5.598;2022-12-07T07:38:08;2.40;99.90
18930;DHT22;43305;52.186;5.598;2022-12-07T07:40:35;2.50;99.90
18930;DHT22;43305;52.186;5.598;2022-12-07T07:43:03;2.50;99.90
18930;DHT22;43305;52.186;5.598;2022-12-07T07:45:35;2.50;99.90
18930;DHT22;43305;52.186;5.598;2022-12-07T07:48:02;2.50;99.90
18930;DHT22;43305;52.186;5.598;2022-12-07T07:50:29;2.60;99.90
18930;DHT22;43305;52.186;5.598;2022-12-07T07:52:56;2.60;99.90
18930;DHT22;43305;52.186;5.598;2022-12-07T07:55:23;2.60;99.90
18930;DHT22;43305;52.186;5.598;2022-12-07T07:57:50;2.70;99.90
18930;DHT22;43305;52.186;5.598;2022-12-07T08:00:20;2.70;99.90
18930;DHT22;43305;52.186;5.598;2022-12-07T08:02:47;2.60;99.90
18930;DHT22;43305;52.186;5.598;2022-12-07T08:05:14;2.70;99.90
18930;DHT22;43305;52.186;5.598;2022-12-07T08:07:41;2.70;99.90
18930;DHT22;43305;52.186;5.598;2022-12-07T08:10:11;2.60;99.90
18930;DHT22;43305;52.186;5.598;2022-12-07T08:12:39;2.70;99.90
18930;DHT22;43305;52.186;5.598;2022-12-07T08:15:30;2.60;99.90
18930;DHT22;43305;52.186;5.598;2022-12-07T08:17:59;2.60;99.90
18930;DHT22;43305;52.186;5.598;2022-12-07T08:20:26;2.60;99.90
18930;DHT22;43305;52.186;5.598;2022-12-07T08:22:53;2.60;99.90
18930;DHT22;43305;52.186;5.598;2022-12-07T08:25:19;2.60;99.90
18930;DHT22;43305;52.186;5.598;2022-12-07T08:27:47;2.70;99.90
18930;DHT22;43305;52.186;5.598;2022-12-07T08:30:14;2.70;99.90
18930;DHT22;43305;52.186;5.598;2022-12-07T08:32:43;2.70;99.90
18930;DHT22;43305;52.186;5.598;2022-12-07T08:35:10;2.80;99.90
18930;DHT22;43305;52.186;5.598;2022-12-07T08:37:37;2.90;99.90
18930;DHT22;43305;52.186;5.598;2022-12-07T08:40:05;3.00;99.90
18930;DHT22;43305;52.186;5.598;2022-12-07T08:42:34;3.10;99.90
18930;DHT22;43305;52.186;5.598;2022-12-07T08:45:09;3.30;99.90
18930;DHT22;43305;52.186;5.598;2022-12-07T08:47:46;3.40;99.90
18930;DHT22;43305;52.186;5.598;2022-12-07T08:50:14;3.40;99.90
18930;DHT22;43305;52.186;5.598;2022-12-07T08:52:43;3.60;99.90
18930;DHT22;43305;52.186;5.598;2022-12-07T08:55:29;3.60;99.90
18930;DHT22;43305;52.186;5.598;2022-12-07T08:57:59;3.60;99.90
18930;DHT22;43305;52.186;5.598;2022-12-07T09:00:27;3.70;99.90
18930;DHT22;43305;52.186;5.598;2022-12-07T09:02:58;3.60;99.90
18930;DHT22;43305;52.186;5.598;2022-12-07T09:05:25;3.60;99.90
18930;DHT22;43305;52.186;5.598;2022-12-07T09:07:56;3.60;99.90
18930;DHT22;43305;52.186;5.598;2022-12-07T09:10:29;3.70;99.90
18930;DHT22;43305;52.186;5.598;2022-12-07T09:12:56;3.90;99.90
18930;DHT22;43305;52.186;5.598;2022-12-07T09:15:28;4.20;99.90
18930;DHT22;43305;52.186;5.598;2022-12-07T09:18:01;4.40;99.90
18930;DHT22;43305;52.186;5.598;2022-12-07T09:20:32;4.40;99.90
18930;DHT22;43305;52.186;5.598;2022-12-07T09:22:59;4.40;99.90
18930;DHT22;43305;52.186;5.598;2022-12-07T09:25:28;4.50;99.90
18930;DHT22;43305;52.186;5.598;2022-12-07T09:27:58;4.50;99.90
18930;DHT22;43305;52.186;5.598;2022-12-07T09:30:28;4.40;99.90
18930;DHT22;43305;52.186;5.598;2022-12-07T09:33:03;4.50;99.90
18930;DHT22;43305;52.186;5.598;2022-12-07T09:35:34;4.50;99.90
18930;DHT22;43305;52.186;5.598;2022-12-07T09:38:05;4.40;99.90
18930;DHT22;43305;52.186;5.598;2022-12-07T09:40:35;4.40;99.90
18930;DHT22;43305;52.186;5.598;2022-12-07T09:43:10;4.50;99.90
18930;DHT22;43305;52.186;5.598;2022-12-07T09:45:38;4.40;99.90
18930;DHT22;43305;52.186;5.598;2022-12-07T09:48:18;4.50;99.90
18930;DHT22;43305;52.186;5.598;2022-12-07T09:50:49;4.60;99.90
18930;DHT22;43305;52.186;5.598;2022-12-07T09:53:26;4.60;99.90
18930;DHT22;43305;52.186;5.598;2022-12-07T09:55:59;4.70;99.90
18930;DHT22;43305;52.186;5.598;2022-12-07T09:58:29;4.80;99.90
18930;DHT22;43305;52.186;5.598;2022-12-07T10:01:12;4.90;99.90
18930;DHT22;43305;52.186;5.598;2022-12-07T10:03:48;4.90;99.90
18930;DHT22;43305;52.186;5.598;2022-12-07T10:06:20;5.00;99.90
18930;DHT22;43305;52.186;5.598;2022-12-07T10:08:47;5.10;99.90
18930;DHT22;43305;52.186;5.598;2022-12-07T10:11:14;5.20;99.90
18930;DHT22;43305;52.186;5.598;2022-12-07T10:13:44;5.30;99.90
18930;DHT22;43305;52.186;5.598;2022-12-07T10:16:32;5.50;99.90
18930;DHT22;43305;52.186;5.598;2022-12-07T10:19:20;5.60;99.90
18930;DHT22;43305;52.186;5.598;2022-12-07T10:22:01;5.70;99.90
18930;DHT22;43305;52.186;5.598;2022-12-07T10:24:28;5.80;99.90
18930;DHT22;43305;52.186;5.598;2022-12-07T10:26:59;5.80;99.90
18930;DHT22;43305;52.186;5.598;2022-12-07T10:29:39;5.80;99.90
18930;DHT22;43305;52.186;5.598;2022-12-07T10:32:34;6.30;99.90
18930;DHT22;43305;52.186;5.598;2022-12-07T10:35:20;6.60;99.90
18930;DHT22;43305;52.186;5.598;2022-12-07T10:37:54;6.60;99.90
18930;DHT22;43305;52.186;5.598;2022-12-07T10:40:30;6.50;99.90
18930;DHT22;43305;52.186;5.598;2022-12-07T10:43:02;6.50;99.90
18930;DHT22;43305;52.186;5.598;2022-12-07T10:45:30;6.50;99.90
18930;DHT22;43305;52.186;5.598;2022-12-07T10:48:05;6.50;99.90
18930;DHT22;43305;52.186;5.598;2022-12-07T10:50:47;6.50;99.90
18930;DHT22;43305;52.186;5.598;2022-12-07T10:53:28;6.50;99.90
18930;DHT22;43305;52.186;5.598;2022-12-07T10:56:17;6.60;99.90
18930;DHT22;43305;52.186;5.598;2022-12-07T10:58:56;6.90;99.90
18930;DHT22;43305;52.186;5.598;2022-12-07T11:01:32;7.30;99.90
18930;DHT22;43305;52.186;5.598;2022-12-07T11:04:16;7.60;99.90
18930;DHT22;43305;52.186;5.598;2022-12-07T11:06:54;7.70;99.90
18930;DHT22;43305;52.186;5.598;2022-12-07T11:09:38;7.80;99.90
18930;DHT22;43305;52.186;5.598;2022-12-07T11:12:16;7.70;99.90
18930;DHT22;43305;52.186;5.598;2022-12-07T11:14:54;7.40;99.90
18930;DHT22;43305;52.186;5.598;2022-12-07T11:17:34;7.10;99.90
18930;DHT22;43305;52.186;5.598;2022-12-07T11:20:15;6.80;99.90
18930;DHT22;43305;52.186;5.598;2022-12-07T11:22:51;6.60;99.90
18930;DHT22;43305;52.186;5.598;2022-12-07T11:25:26;6.80;99.90
18930;DHT22;43305;52.186;5.598;2022-12-07T11:28:14;6.90;99.90
18930;DHT22;43305;52.186;5.598;2022-12-07T11:30:53;6.90;99.90
18930;DHT22;43305;52.186;5.598;2022-12-07T11:33:32;6.90;99.90
18930;DHT22;43305;52.186;5.598;2022-12-07T11:36:07;6.90;99.90
18930;DHT22;43305;52.186;5.598;2022-12-07T11:38:44;7.00;99.90
18930;DHT22;43305;52.186;5.598;2022-12-07T11:41:13;7.10;99.90
18930;DHT22;43305;52.186;5.598;2022-12-07T11:43:53;7.20;99.90
18930;DHT22;43305;52.186;5.598;2022-12-07T11:46:25;7.30;99.90
18930;DHT22;43305;52.186;5.598;2022-12-07T11:49:02;7.40;99.90
18930;DHT22;43305;52.186;5.598;2022-12-07T11:51:35;7.40;99.90
18930;DHT22;43305;52.186;5.598;2022-12-07T11:54:14;7.50;99.90
18930;DHT22;43305;52.186;5.598;2022-12-07T11:56:46;7.50;99.90
18930;DHT22;43305;52.186;5.598;2022-12-07T11:59:21;7.30;99.90
18930;DHT22;43305;52.186;5.598;2022-12-07T12:02:00;7.20;99.90
18930;DHT22;43305;52.186;5.598;2022-12-07T12:04:43;7.20;99.90
18930;DHT22;43305;52.186;5.598;2022-12-07T12:07:17;7.10;99.90
18930;DHT22;43305;52.186;5.598;2022-12-07T12:09:55;7.10;99.90
18930;DHT22;43305;52.186;5.598;2022-12-07T12:12:38;7.20;99.90
18930;DHT22;43305;52.186;5.598;2022-12-07T12:15:20;7.20;99.90
18930;DHT22;43305;52.186;5.598;2022-12-07T12:18:02;7.30;99.90
18930;DHT22;43305;52.186;5.598;2022-12-07T12:20:37;7.40;99.90
18930;DHT22;43305;52.186;5.598;2022-12-07T12:23:12;7.60;99.90
18930;DHT22;43305;52.186;5.598;2022-12-07T12:25:45;7.90;99.90
18930;DHT22;43305;52.186;5.598;2022-12-07T12:28:26;8.20;99.90
18930;DHT22;43305;52.186;5.598;2022-12-07T12:31:11;8.50;99.90
18930;DHT22;43305;52.186;5.598;2022-12-07T12:33:43;8.90;99.90
18930;DHT22;43305;52.186;5.598;2022-12-07T12:39:14;9.00;99.90
18930;DHT22;43305;52.186;5.598;2022-12-07T12:41:59;9.50;99.90
18930;DHT22;43305;52.186;5.598;2022-12-07T12:50:20;9.90;99.90
18930;DHT22;43305;52.186;5.598;2022-12-07T12:52:53;10.00;99.90
18930;DHT22;43305;52.186;5.598;2022-12-07T12:58:37;9.10;99.90
18930;DHT22;43305;52.186;5.598;2022-12-07T13:01:37;8.50;99.90
18930;DHT22;43305;52.186;5.598;2022-12-07T13:04:18;8.20;99.90
18930;DHT22;43305;52.186;5.598;2022-12-07T13:06:52;7.90;99.90
18930;DHT22;43305;52.186;5.598;2022-12-07T13:09:22;7.60;99.90
18930;DHT22;43305;52.186;5.598;2022-12-07T13:11:58;7.30;99.90
18930;DHT22;43305;52.186;5.598;2022-12-07T13:14:56;7.00;99.90
18930;DHT22;43305;52.186;5.598;2022-12-07T13:20:42;6.40;99.90
18930;DHT22;43305;52.186;5.598;2022-12-07T13:23:09;5.90;99.90
18930;DHT22;43305;52.186;5.598;2022-12-07T13:25:45;5.70;99.90
18930;DHT22;43305;52.186;5.598;2022-12-07T13:28:17;5.50;99.90
18930;DHT22;43305;52.186;5.598;2022-12-07T13:30:54;5.50;99.90
18930;DHT22;43305;52.186;5.598;2022-12-07T13:33:27;5.40;99.90
18930;DHT22;43305;52.186;5.598;2022-12-07T13:35:56;5.50;99.90
18930;DHT22;43305;52.186;5.598;2022-12-07T13:38:27;5.90;99.90
18930;DHT22;43305;52.186;5.598;2022-12-07T13:41:04;6.30;99.90
18930;DHT22;43305;52.186;5.598;2022-12-07T13:43:41;6.30;99.90
18930;DHT22;43305;52.186;5.598;2022-12-07T13:46:11;6.80;99.90
18930;DHT22;43305;52.186;5.598;2022-12-07T13:48:45;7.40;99.90
18930;DHT22;43305;52.186;5.598;2022-12-07T13:51:23;7.50;99.90
18930;DHT22;43305;52.186;5.598;2022-12-07T13:53:52;7.20;99.90
18930;DHT22;43305;52.186;5.598;2022-12-07T13:56:21;6.90;99.90
18930;DHT22;43305;52.186;5.598;2022-12-07T13:58:49;6.70;99.90
18930;DHT22;43305;52.186;5.598;2022-12-07T14:01:18;6.50;99.90
18930;DHT22;43305;52.186;5.598;2022-12-07T14:03:45;6.30;99.90
18930;DHT22;43305;52.186;5.598;2022-12-07T14:06:20;6.20;99.90
18930;DHT22;43305;52.186;5.598;2022-12-07T14:09:06;6.10;99.90
18930;DHT22;43305;52.186;5.598;2022-12-07T14:11:33;6.00;99.90
18930;DHT22;43305;52.186;5.598;2022-12-07T14:14:15;6.00;99.90
18930;DHT22;43305;52.186;5.598;2022-12-07T14:16:56;6.00;99.90
18930;DHT22;43305;52.186;5.598;2022-12-07T14:19:41;6.00;99.90
18930;DHT22;43305;52.186;5.598;2022-12-07T14:22:21;5.90;99.90
18930;DHT22;43305;52.186;5.598;2022-12-07T14:24:57;5.90;99.90
18930;DHT22;43305;52.186;5.598;2022-12-07T14:27:24;5.80;99.90
18930;DHT22;43305;52.186;5.598;2022-12-07T14:29:56;5.80;99.90
18930;DHT22;43305;52.186;5.598;2022-12-07T14:32:26;5.80;99.90
18930;DHT22;43305;52.186;5.598;2022-12-07T14:34:59;5.80;99.90
18930;DHT22;43305;52.186;5.598;2022-12-07T14:37:29;5.70;99.90
18930;DHT22;43305;52.186;5.598;2022-12-07T14:39:59;5.70;99.90
18930;DHT22;43305;52.186;5.598;2022-12-07T14:42:30;5.70;99.90
18930;DHT22;43305;52.186;5.598;2022-12-07T14:44:59;5.70;99.90
18930;DHT22;43305;52.186;5.598;2022-12-07T14:47:27;5.60;99.90
18930;DHT22;43305;52.186;5.598;2022-12-07T14:49:56;5.60;99.90
18930;DHT22;43305;52.186;5.598;2022-12-07T14:52:27;5.60;99.90
18930;DHT22;43305;52.186;5.598;2022-12-07T14:54:55;5.50;99.90
18930;DHT22;43305;52.186;5.598;2022-12-07T14:57:27;5.50;99.90
18930;DHT22;43305;52.186;5.598;2022-12-07T14:59:54;5.40;99.90
18930;DHT22;43305;52.186;5.598;2022-12-07T15:02:24;5.40;99.90
18930;DHT22;43305;52.186;5.598;2022-12-07T15:04:52;5.30;99.90
18930;DHT22;43305;52.186;5.598;2022-12-07T15:07:24;5.30;99.90
18930;DHT22;43305;52.186;5.598;2022-12-07T15:09:53;5.30;99.90
18930;DHT22;43305;52.186;5.598;2022-12-07T15:12:20;5.30;99.90
18930;DHT22;43305;52.186;5.598;2022-12-07T15:14:51;5.30;99.90
18930;DHT22;43305;52.186;5.598;2022-12-07T15:17:18;5.30;99.90
18930;DHT22;43305;52.186;5.598;2022-12-07T15:19:47;5.20;99.90
18930;DHT22;43305;52.186;5.598;2022-12-07T15:22:16;5.20;99.90
18930;DHT22;43305;52.186;5.598;2022-12-07T15:24:45;5.20;99.90
18930;DHT22;43305;52.186;5.598;2022-12-07T15:27:14;5.10;99.90
18930;DHT22;43305;52.186;5.598;2022-12-07T15:29:43;5.10;99.90
18930;DHT22;43305;52.186;5.598;2022-12-07T15:32:10;5.00;99.90
18930;DHT22;43305;52.186;5.598;2022-12-07T15:34:39;5.00;99.90
18930;DHT22;43305;52.186;5.598;2022-12-07T15:37:08;5.00;99.90
18930;DHT22;43305;52.186;5.598;2022-12-07T15:39:46;5.00;99.90
18930;DHT22;43305;52.186;5.598;2022-12-07T15:42:29;5.00;99.90
18930;DHT22;43305;52.186;5.598;2022-12-07T15:44:56;5.00;99.90
18930;DHT22;43305;52.186;5.598;2022-12-07T15:47:29;5.00;99.90
18930;DHT22;43305;52.186;5.598;2022-12-07T15:49:58;5.00;99.90
18930;DHT22;43305;52.186;5.598;2022-12-07T15:52:25;5.00;99.90
18930;DHT22;43305;52.186;5.598;2022-12-07T15:54:55;5.00;99.90
18930;DHT22;43305;52.186;5.598;2022-12-07T15:57:25;5.00;99.90
18930;DHT22;43305;52.186;5.598;2022-12-07T15:59:52;5.00;99.90
18930;DHT22;43305;52.186;5.598;2022-12-07T16:02:23;5.00;99.90
18930;DHT22;43305;52.186;5.598;2022-12-07T16:04:50;5.00;99.90
18930;DHT22;43305;52.186;5.598;2022-12-07T16:07:21;4.90;99.90
18930;DHT22;43305;52.186;5.598;2022-12-07T16:09:50;4.90;99.90
18930;DHT22;43305;52.186;5.598;2022-12-07T16:12:23;4.90;99.90
18930;DHT22;43305;52.186;5.598;2022-12-07T16:14:52;4.80;99.90
18930;DHT22;43305;52.186;5.598;2022-12-07T16:17:19;4.80;99.90
18930;DHT22;43305;52.186;5.598;2022-12-07T16:19:49;4.80;99.90
18930;DHT22;43305;52.186;5.598;2022-12-07T16:22:15;4.80;99.90
18930;DHT22;43305;52.186;5.598;2022-12-07T16:24:45;4.80;99.90
18930;DHT22;43305;52.186;5.598;2022-12-07T16:27:12;4.70;99.90
18930;DHT22;43305;52.186;5.598;2022-12-07T16:29:41;4.70;99.90
18930;DHT22;43305;52.186;5.598;2022-12-07T16:32:10;4.70;99.90